createdAt,value
2017-07-27T00:00:11.729Z,27.6
2017-07-27T00:01:13.525Z,27.7
2017-07-27T00:02:15.654Z,27.7
2017-07-27T00:03:17.454Z,27.7
2017-07-27T00:04:19.587Z,27.6
2017-07-27T00:05:21.381Z,27.7
2017-07-27T00:06:23.177Z,27.7
2017-07-27T00:07:25.308Z,27.6
2017-07-27T00:08:27.103Z,27.6
2017-07-27T00:09:28.904Z,27.6
2017-07-27T00:10:31.034Z,27.6
2017-07-27T00:11:32.815Z,27.7
2017-07-27T00:12:34.254Z,27.5
2017-07-27T00:13:36.033Z,27.7
2017-07-27T00:14:37.829Z,27.6
2017-07-27T00:15:39.962Z,27.7
2017-07-27T00:16:41.743Z,27.6
2017-07-27T00:17:43.891Z,27.6
2017-07-27T00:18:46.021Z,27.6
2017-07-27T00:19:48.153Z,27.6
2017-07-27T00:20:50.284Z,27.6
2017-07-27T00:21:52.079Z,27.6
2017-07-27T00:22:53.215Z,27.7
2017-07-27T00:23:55.013Z,27.6
2017-07-27T00:24:56.819Z,27.6
2017-07-27T00:25:58.598Z,27.6
2017-07-27T00:27:00.726Z,27.6
2017-07-27T00:28:02.907Z,27.6
2017-07-27T00:29:05.036Z,27.6
2017-07-27T00:30:07.194Z,27.6
2017-07-27T00:31:08.988Z,27.7
2017-07-27T00:32:10.789Z,27.6
2017-07-27T00:33:12.917Z,27.6
2017-07-27T00:34:15.048Z,27.6
2017-07-27T00:35:17.182Z,27.6
2017-07-27T00:36:19.312Z,27.6
2017-07-27T00:37:21.111Z,27.6
2017-07-27T00:38:22.909Z,27.6
2017-07-27T00:39:25.038Z,27.6
2017-07-27T00:40:26.165Z,27.6
2017-07-27T00:41:27.941Z,27.6
2017-07-27T00:42:30.068Z,27.6
2017-07-27T00:43:31.865Z,27.6
2017-07-27T00:44:33.663Z,27.6
2017-07-27T00:45:35.460Z,27.6
2017-07-27T00:46:37.236Z,27.6
2017-07-27T00:47:38.701Z,27.6
2017-07-27T00:48:40.169Z,27.6
2017-07-27T00:49:42.307Z,27.6
2017-07-27T00:50:44.454Z,27.6
2017-07-27T00:51:45.919Z,27.6
2017-07-27T00:52:48.049Z,27.6
2017-07-27T00:53:49.848Z,27.6
2017-07-27T00:54:51.978Z,27.7
2017-07-27T00:55:53.420Z,27.6
2017-07-27T00:56:55.198Z,27.6
2017-07-27T00:57:56.973Z,27.6
2017-07-27T00:58:59.103Z,27.6
2017-07-27T01:00:01.234Z,27.7
2017-07-27T01:01:03.364Z,27.6
2017-07-27T01:02:05.160Z,27.6
2017-07-27T01:03:06.962Z,27.5
2017-07-27T01:04:09.092Z,27.5
2017-07-27T01:05:11.225Z,27.6
2017-07-27T01:06:13.354Z,27.6
2017-07-27T01:07:14.800Z,27.6
2017-07-27T01:08:16.941Z,27.6
2017-07-27T01:09:18.716Z,27.5
2017-07-27T01:10:20.180Z,27.5
2017-07-27T01:11:21.979Z,27.6
2017-07-27T01:12:23.776Z,27.5
2017-07-27T01:13:25.243Z,27.5
2017-07-27T01:14:27.046Z,27.5
2017-07-27T01:15:29.175Z,27.6
2017-07-27T01:16:30.975Z,27.6
2017-07-27T01:17:32.770Z,27.5
2017-07-27T01:18:34.235Z,27.5
2017-07-27T01:19:36.365Z,27.5
2017-07-27T01:20:38.497Z,27.5
2017-07-27T01:21:40.297Z,27.5
2017-07-27T01:22:42.105Z,27.5
2017-07-27T01:23:43.594Z,27.5
2017-07-27T01:24:45.388Z,27.5
2017-07-27T01:25:46.897Z,27.5
2017-07-27T01:26:48.693Z,27.5
2017-07-27T01:27:50.495Z,27.5
2017-07-27T01:28:52.626Z,27.5
2017-07-27T01:29:53.738Z,27.5
2017-07-27T01:30:55.560Z,27.6
2017-07-27T01:31:57.367Z,27.6
2017-07-27T01:32:59.166Z,27.5
2017-07-27T01:34:01.296Z,27.5
2017-07-27T01:35:03.093Z,27.6
2017-07-27T01:36:03.872Z,27.6
2017-07-27T01:37:05.668Z,27.5
2017-07-27T01:38:07.803Z,27.5
2017-07-27T01:39:09.600Z,27.5
2017-07-27T01:40:11.070Z,27.5
2017-07-27T01:41:12.535Z,27.5
2017-07-27T01:42:14.667Z,27.6
2017-07-27T01:43:16.440Z,27.5
2017-07-27T01:44:18.570Z,27.6
2017-07-27T01:45:20.702Z,27.5
2017-07-27T01:46:22.832Z,27.5
2017-07-27T01:47:24.628Z,27.6
2017-07-27T01:48:26.406Z,27.6
2017-07-27T01:49:28.535Z,27.5
2017-07-27T01:50:30.004Z,27.5
2017-07-27T01:51:32.136Z,27.5
2017-07-27T01:52:33.248Z,27.5
2017-07-27T01:53:35.389Z,27.6
2017-07-27T01:54:37.519Z,27.6
2017-07-27T01:55:39.316Z,27.5
2017-07-27T01:56:41.091Z,27.5
2017-07-27T01:57:42.888Z,27.5
2017-07-27T01:58:45.022Z,27.5
2017-07-27T01:59:46.807Z,27.5
2017-07-27T02:00:48.595Z,27.5
2017-07-27T02:01:50.390Z,27.5
2017-07-27T02:02:52.521Z,27.5
2017-07-27T02:03:54.319Z,27.5
2017-07-27T02:04:56.121Z,27.6
2017-07-27T02:05:57.918Z,27.6
2017-07-27T02:06:59.715Z,27.6
2017-07-27T02:08:01.516Z,27.6
2017-07-27T02:09:03.312Z,27.6
2017-07-27T02:10:05.442Z,27.5
2017-07-27T02:11:07.240Z,27.4
2017-07-27T02:12:09.040Z,27.6
2017-07-27T02:13:11.171Z,27.5
2017-07-27T02:14:12.983Z,27.5
2017-07-27T02:15:14.763Z,27.5
2017-07-27T02:16:16.229Z,27.5
2017-07-27T02:17:18.005Z,27.6
2017-07-27T02:18:19.803Z,27.5
2017-07-27T02:19:21.934Z,27.5
2017-07-27T02:20:24.062Z,27.4
2017-07-27T02:21:25.528Z,27.4
2017-07-27T02:22:27.339Z,27.4
2017-07-27T02:23:29.140Z,27.5
2017-07-27T02:24:31.267Z,27.5
2017-07-27T02:25:33.409Z,27.4
2017-07-27T02:26:34.870Z,27.5
2017-07-27T02:27:37.043Z,27.4
2017-07-27T02:28:38.485Z,27.5
2017-07-27T02:29:40.287Z,27.5
2017-07-27T02:30:42.083Z,27.4
2017-07-27T02:31:43.558Z,27.5
2017-07-27T02:32:45.353Z,27.5
2017-07-27T02:33:47.160Z,27.5
2017-07-27T02:34:48.267Z,27.5
2017-07-27T02:35:50.067Z,27.4
2017-07-27T02:36:51.864Z,27.4
2017-07-27T02:37:53.666Z,27.4
2017-07-27T02:38:55.464Z,27.5
2017-07-27T02:39:57.594Z,27.5
2017-07-27T02:40:58.376Z,27.5
2017-07-27T02:42:00.163Z,27.5
2017-07-27T02:43:01.977Z,27.5
2017-07-27T02:44:03.773Z,27.5
2017-07-27T02:45:05.570Z,27.4
2017-07-27T02:46:07.762Z,27.5
2017-07-27T02:47:09.893Z,27.4
2017-07-27T02:48:12.029Z,27.5
2017-07-27T02:49:13.137Z,27.5
2017-07-27T02:50:14.937Z,27.4
2017-07-27T02:51:16.746Z,27.5
2017-07-27T02:52:18.525Z,27.5
2017-07-27T02:53:20.325Z,27.5
2017-07-27T02:54:21.769Z,27.4
2017-07-27T02:55:23.900Z,27.4
2017-07-27T02:56:25.344Z,27.5
2017-07-27T02:57:27.119Z,27.5
2017-07-27T02:58:28.259Z,27.5
2017-07-27T02:59:30.388Z,27.4
2017-07-27T03:00:32.181Z,27.5
2017-07-27T03:01:34.312Z,27.5
2017-07-27T03:02:36.444Z,27.5
2017-07-27T03:03:38.572Z,27.5
2017-07-27T03:04:40.701Z,27.5
2017-07-27T03:05:42.166Z,27.5
2017-07-27T03:06:43.974Z,27.6
2017-07-27T03:07:45.748Z,27.4
2017-07-27T03:08:47.877Z,27.4
2017-07-27T03:09:50.008Z,27.4
2017-07-27T03:10:51.124Z,27.5
2017-07-27T03:11:52.592Z,27.4
2017-07-27T03:12:53.704Z,27.5
2017-07-27T03:13:55.502Z,27.4
2017-07-27T03:14:57.632Z,27.4
2017-07-27T03:15:59.466Z,27.5
2017-07-27T03:17:01.265Z,27.4
2017-07-27T03:18:03.043Z,27.4
2017-07-27T03:19:05.173Z,27.5
2017-07-27T03:20:07.305Z,27.5
2017-07-27T03:21:09.113Z,27.5
2017-07-27T03:22:11.242Z,27.5
2017-07-27T03:23:12.688Z,27.5
2017-07-27T03:24:14.464Z,27.5
2017-07-27T03:25:16.595Z,27.5
2017-07-27T03:26:18.725Z,27.5
2017-07-27T03:27:20.167Z,27.5
2017-07-27T03:28:21.963Z,27.4
2017-07-27T03:29:23.762Z,27.5
2017-07-27T03:30:25.600Z,27.5
2017-07-27T03:31:27.068Z,27.4
2017-07-27T03:32:28.512Z,27.4
2017-07-27T03:33:30.649Z,27.4
2017-07-27T03:34:32.426Z,27.5
2017-07-27T03:35:34.225Z,27.5
2017-07-27T03:36:35.690Z,27.4
2017-07-27T03:37:37.489Z,27.5
2017-07-27T03:38:39.289Z,27.5
2017-07-27T03:39:41.070Z,27.5
2017-07-27T03:40:42.867Z,27.5
2017-07-27T03:41:45.041Z,27.6
2017-07-27T03:42:46.837Z,27.5
2017-07-27T03:43:48.633Z,27.4
2017-07-27T03:44:50.096Z,27.5
2017-07-27T03:45:51.896Z,27.5
2017-07-27T03:46:54.028Z,27.5
2017-07-27T03:47:56.160Z,27.4
2017-07-27T03:48:57.958Z,27.5
2017-07-27T03:49:59.737Z,27.5
2017-07-27T03:51:01.539Z,27.3
2017-07-27T03:52:02.987Z,27.5
2017-07-27T03:53:05.113Z,27.4
2017-07-27T03:54:06.237Z,27.6
2017-07-27T03:55:08.035Z,27.5
2017-07-27T03:56:10.163Z,27.5
2017-07-27T03:57:11.941Z,27.5
2017-07-27T03:58:13.057Z,27.4
2017-07-27T03:59:15.202Z,27.5
2017-07-27T04:00:17.005Z,27.5
2017-07-27T04:01:18.114Z,27.5
2017-07-27T04:02:20.258Z,27.4
2017-07-27T04:03:21.370Z,27.5
2017-07-27T04:04:23.497Z,27.4
2017-07-27T04:05:25.627Z,27.5
2017-07-27T04:06:27.424Z,27.5
2017-07-27T04:07:29.219Z,27.4
2017-07-27T04:08:31.016Z,27.4
2017-07-27T04:09:32.495Z,27.4
2017-07-27T04:10:34.615Z,27.5
2017-07-27T04:11:36.745Z,27.5
2017-07-27T04:12:38.189Z,27.5
2017-07-27T04:13:39.987Z,27.4
2017-07-27T04:14:41.782Z,27.5
2017-07-27T04:15:43.583Z,27.4
2017-07-27T04:16:45.713Z,27.5
2017-07-27T04:17:47.853Z,27.5
2017-07-27T04:18:50.069Z,27.4
2017-07-27T04:19:52.198Z,27.4
2017-07-27T04:20:54.002Z,27.4
2017-07-27T04:21:55.802Z,27.5
2017-07-27T04:22:57.604Z,27.5
2017-07-27T04:23:59.737Z,27.5
2017-07-27T04:25:01.203Z,27.4
2017-07-27T04:26:02.980Z,27.5
2017-07-27T04:27:36.869Z,27.4
2017-07-27T04:28:38.342Z,27.5
2017-07-27T04:29:39.790Z,27.5
2017-07-27T04:30:41.927Z,27.5
2017-07-27T04:31:43.730Z,27.5
2017-07-27T04:32:45.529Z,27.4
2017-07-27T04:33:47.326Z,27.4
2017-07-27T04:34:49.458Z,27.5
2017-07-27T04:35:51.267Z,27.5
2017-07-27T04:36:52.710Z,27.4
2017-07-27T04:37:54.177Z,27.4
2017-07-27T04:38:55.625Z,27.5
2017-07-27T04:39:57.418Z,27.5
2017-07-27T04:40:58.530Z,27.5
2017-07-27T04:42:00.309Z,27.5
2017-07-27T04:43:01.775Z,27.5
2017-07-27T04:44:03.903Z,27.5
2017-07-27T04:45:05.720Z,27.5
2017-07-27T04:46:07.938Z,27.5
2017-07-27T04:47:09.403Z,27.5
2017-07-27T04:48:11.201Z,27.4
2017-07-27T04:49:13.333Z,27.5
2017-07-27T04:50:14.802Z,27.5
2017-07-27T04:51:16.604Z,27.4
2017-07-27T04:52:18.051Z,27.5
2017-07-27T04:53:19.848Z,27.5
2017-07-27T04:54:21.984Z,27.4
2017-07-27T04:55:24.119Z,27.5
2017-07-27T04:56:25.914Z,27.5
2017-07-27T04:57:28.046Z,27.5
2017-07-27T04:58:29.824Z,27.5
2017-07-27T04:59:31.954Z,27.5
2017-07-27T05:00:33.765Z,27.4
2017-07-27T05:01:35.887Z,27.4
2017-07-27T05:02:38.017Z,27.5
2017-07-27T05:03:39.491Z,27.4
2017-07-27T05:04:41.626Z,27.5
2017-07-27T05:05:43.755Z,27.5
2017-07-27T05:06:45.884Z,27.4
2017-07-27T05:07:47.684Z,27.4
2017-07-27T05:08:49.461Z,27.5
2017-07-27T05:09:51.259Z,27.4
2017-07-27T05:10:52.709Z,27.5
2017-07-27T05:11:54.153Z,27.4
2017-07-27T05:12:55.604Z,27.5
2017-07-27T05:13:57.075Z,27.4
2017-07-27T05:14:58.209Z,27.5
2017-07-27T05:15:59.677Z,27.5
2017-07-27T05:17:01.808Z,27.5
2017-07-27T05:18:03.607Z,27.5
2017-07-27T05:19:05.741Z,27.5
2017-07-27T05:20:07.871Z,27.5
2017-07-27T05:21:09.681Z,27.5
2017-07-27T05:22:11.809Z,27.4
2017-07-27T05:23:13.613Z,27.5
2017-07-27T05:24:15.745Z,27.5
2017-07-27T05:25:17.195Z,27.5
2017-07-27T05:26:18.328Z,27.4
2017-07-27T05:27:20.459Z,27.4
2017-07-27T05:28:22.594Z,27.4
2017-07-27T05:29:24.417Z,27.5
2017-07-27T05:30:26.181Z,27.4
2017-07-27T05:31:28.311Z,27.5
2017-07-27T05:32:30.088Z,27.5
2017-07-27T05:33:31.862Z,27.5
2017-07-27T05:34:33.991Z,27.6
2017-07-27T05:35:35.457Z,27.5
2017-07-27T05:36:37.237Z,27.6
2017-07-27T05:37:38.698Z,27.5
2017-07-27T05:38:40.499Z,27.6
2017-07-27T05:39:42.633Z,27.5
2017-07-27T05:40:44.432Z,27.5
2017-07-27T05:41:46.559Z,27.6
2017-07-27T05:42:48.361Z,27.5
2017-07-27T05:43:50.493Z,27.5
2017-07-27T05:44:52.627Z,27.5
2017-07-27T05:45:54.405Z,27.5
2017-07-27T05:46:55.869Z,27.5
2017-07-27T05:47:57.317Z,27.5
2017-07-27T05:48:59.095Z,27.5
2017-07-27T05:50:00.894Z,27.5
2017-07-27T05:51:02.694Z,27.5
2017-07-27T05:52:04.826Z,27.5
2017-07-27T05:53:07.059Z,27.5
2017-07-27T05:54:08.859Z,27.6
2017-07-27T05:55:10.302Z,27.5
2017-07-27T05:56:12.078Z,27.5
2017-07-27T05:57:14.211Z,27.5
2017-07-27T05:58:15.657Z,27.6
2017-07-27T05:59:17.460Z,27.6
2017-07-27T06:00:19.255Z,27.6
2017-07-27T06:01:21.406Z,27.6
2017-07-27T06:02:23.522Z,27.6
2017-07-27T06:03:24.989Z,27.5
2017-07-27T06:04:26.793Z,27.7
2017-07-27T06:05:28.924Z,27.5
2017-07-27T06:06:31.058Z,27.6
2017-07-27T06:07:32.840Z,27.7
2017-07-27T06:08:34.970Z,27.7
2017-07-27T06:09:36.773Z,27.6
2017-07-27T06:10:38.227Z,27.7
2017-07-27T06:11:39.671Z,27.7
2017-07-27T06:12:41.803Z,27.7
2017-07-27T06:13:43.600Z,27.7
2017-07-27T06:14:45.733Z,27.7
2017-07-27T06:15:47.511Z,27.6
2017-07-27T06:16:49.309Z,27.7
2017-07-27T06:17:50.757Z,27.7
2017-07-27T06:18:52.558Z,27.7
2017-07-27T06:19:54.020Z,27.7
2017-07-27T06:20:55.825Z,27.7
2017-07-27T06:21:57.955Z,27.7
2017-07-27T06:22:59.757Z,27.7
2017-07-27T06:24:01.557Z,27.7
2017-07-27T06:25:03.362Z,27.7
2017-07-27T06:26:05.163Z,27.7
2017-07-27T06:27:06.944Z,27.8
2017-07-27T06:28:08.410Z,27.8
2017-07-27T06:29:09.930Z,27.8
2017-07-27T06:30:11.719Z,27.8
2017-07-27T06:31:13.854Z,27.8
2017-07-27T06:32:15.658Z,27.8
2017-07-27T06:33:17.789Z,27.8
2017-07-27T06:34:19.563Z,27.8
2017-07-27T06:35:21.386Z,27.9
2017-07-27T06:36:23.517Z,27.8
2017-07-27T06:37:25.651Z,27.9
2017-07-27T06:38:26.765Z,27.8
2017-07-27T06:39:28.896Z,27.8
2017-07-27T06:40:30.366Z,27.8
2017-07-27T06:41:32.172Z,27.8
2017-07-27T06:42:33.972Z,27.9
2017-07-27T06:43:35.771Z,27.9
2017-07-27T06:44:37.906Z,27.9
2017-07-27T06:45:39.704Z,27.9
2017-07-27T06:46:41.842Z,28
2017-07-27T06:47:43.285Z,27.9
2017-07-27T06:48:44.755Z,27.9
2017-07-27T06:49:46.986Z,27.9
2017-07-27T06:50:48.100Z,27.9
2017-07-27T06:51:49.907Z,28
2017-07-27T06:52:52.041Z,28
2017-07-27T06:53:54.178Z,28
2017-07-27T06:54:55.976Z,28
2017-07-27T06:55:57.778Z,28
2017-07-27T06:56:59.914Z,27.9
2017-07-27T06:58:01.715Z,27.9
2017-07-27T06:59:03.851Z,28
2017-07-27T07:00:05.303Z,28
2017-07-27T07:01:07.106Z,28.1
2017-07-27T07:02:09.234Z,28
2017-07-27T07:03:11.366Z,28.1
2017-07-27T07:04:12.813Z,28
2017-07-27T07:05:14.998Z,28.1
2017-07-27T07:06:17.130Z,28.1
2017-07-27T07:07:19.269Z,28.1
2017-07-27T07:08:21.074Z,28
2017-07-27T07:09:22.518Z,28.1
2017-07-27T07:10:24.298Z,28.1
2017-07-27T07:11:26.099Z,28.1
2017-07-27T07:12:27.212Z,28.1
2017-07-27T07:13:29.011Z,28.1
2017-07-27T07:14:31.152Z,28.1
2017-07-27T07:15:32.927Z,28.2
2017-07-27T07:16:34.708Z,28.1
2017-07-27T07:17:36.176Z,28.1
2017-07-27T07:18:37.958Z,28.1
2017-07-27T07:19:39.068Z,28.1
2017-07-27T07:20:41.205Z,28.1
2017-07-27T07:21:43.012Z,28.1
2017-07-27T07:22:45.139Z,28.1
2017-07-27T07:23:46.943Z,28.1
2017-07-27T07:24:48.413Z,28.1
2017-07-27T07:25:49.882Z,28.1
2017-07-27T07:26:51.685Z,28.1
2017-07-27T07:27:53.460Z,28.1
2017-07-27T07:28:55.592Z,28.1
2017-07-27T07:29:57.720Z,28.1
2017-07-27T07:30:59.850Z,28.1
2017-07-27T07:32:01.652Z,28.1
2017-07-27T07:33:03.790Z,28.1
2017-07-27T07:34:05.591Z,28.2
2017-07-27T07:35:07.725Z,28.1
2017-07-27T07:36:09.527Z,28.2
2017-07-27T07:37:11.325Z,28.1
2017-07-27T07:38:13.460Z,28.1
2017-07-27T07:39:14.907Z,28.1
2017-07-27T07:40:16.709Z,28.1
2017-07-27T07:41:18.510Z,28.1
2017-07-27T07:42:20.290Z,28.1
2017-07-27T07:43:22.422Z,28.1
2017-07-27T07:44:24.223Z,28.1
2017-07-27T07:45:26.026Z,28.2
2017-07-27T07:46:27.142Z,28.2
2017-07-27T07:47:28.587Z,28.2
2017-07-27T07:48:30.055Z,28.3
2017-07-27T07:49:31.833Z,28.2
2017-07-27T07:50:33.633Z,28.2
2017-07-27T07:51:35.435Z,28.2
2017-07-27T07:52:37.569Z,28.3
2017-07-27T07:53:39.346Z,28.2
2017-07-27T07:54:41.478Z,28.1
2017-07-27T07:55:42.951Z,28.2
2017-07-27T07:56:44.748Z,28.2
2017-07-27T07:57:46.881Z,28.3
2017-07-27T07:58:48.682Z,28.3
2017-07-27T07:59:50.484Z,28.2
2017-07-27T08:00:51.927Z,28.2
2017-07-27T08:01:53.736Z,28.2
2017-07-27T08:02:55.536Z,28.3
2017-07-27T08:03:57.342Z,28.3
2017-07-27T08:04:59.147Z,28.3
2017-07-27T08:06:00.944Z,28.3
2017-07-27T08:07:02.733Z,28.4
2017-07-27T08:08:04.871Z,28.3
2017-07-27T08:09:06.676Z,28.4
2017-07-27T08:10:08.152Z,28.3
2017-07-27T08:11:09.948Z,28.3
2017-07-27T08:12:12.081Z,28.4
2017-07-27T08:13:13.882Z,28.3
2017-07-27T08:14:16.015Z,28.4
2017-07-27T08:15:18.147Z,28.3
2017-07-27T08:16:19.595Z,28.4
2017-07-27T08:17:21.399Z,28.3
2017-07-27T08:18:23.533Z,28.4
2017-07-27T08:19:25.310Z,28.3
2017-07-27T08:20:27.111Z,28.3
2017-07-27T08:21:28.909Z,28.4
2017-07-27T08:22:30.711Z,28.4
2017-07-27T08:23:32.177Z,28.4
2017-07-27T08:24:34.313Z,28.4
2017-07-27T08:25:36.445Z,28.4
2017-07-27T08:26:38.243Z,28.3
2017-07-27T08:27:40.446Z,28.4
2017-07-27T08:28:42.587Z,28.4
2017-07-27T08:29:44.722Z,28.4
2017-07-27T08:30:46.523Z,28.4
2017-07-27T08:31:48.657Z,28.4
2017-07-27T08:32:50.439Z,28.4
2017-07-27T08:33:52.573Z,28.3
2017-07-27T08:34:54.382Z,28.4
2017-07-27T08:35:56.512Z,28.4
2017-07-27T08:36:58.646Z,28.4
2017-07-27T08:38:00.423Z,28.4
2017-07-27T08:39:02.554Z,28.3
2017-07-27T08:40:04.361Z,28.4
2017-07-27T08:41:05.835Z,28.4
2017-07-27T08:42:07.634Z,28.4
2017-07-27T08:43:09.765Z,28.4
2017-07-27T08:44:11.241Z,28.4
2017-07-27T08:45:13.017Z,28.4
2017-07-27T08:46:14.463Z,28.4
2017-07-27T08:47:15.577Z,28.4
2017-07-27T08:48:17.094Z,28.5
2017-07-27T08:49:19.226Z,28.4
2017-07-27T08:50:21.360Z,28.4
2017-07-27T08:51:23.164Z,28.3
2017-07-27T08:52:25.297Z,28.4
2017-07-27T08:53:27.201Z,28.4
2017-07-27T08:54:29.333Z,28.4
2017-07-27T08:55:31.469Z,28.4
2017-07-27T08:56:32.583Z,28.4
2017-07-27T08:57:34.052Z,28.4
2017-07-27T08:58:36.185Z,28.4
2017-07-27T08:59:37.990Z,28.4
2017-07-27T09:00:40.125Z,28.4
2017-07-27T09:01:41.939Z,28.4
2017-07-27T09:02:43.388Z,28.4
2017-07-27T09:03:45.166Z,28.4
2017-07-27T09:04:46.633Z,28.4
2017-07-27T09:05:48.438Z,28.4
2017-07-27T09:06:50.570Z,28.4
2017-07-27T09:07:52.367Z,28.4
2017-07-27T09:08:53.885Z,28.4
2017-07-27T09:09:56.023Z,28.5
2017-07-27T09:10:58.152Z,28.4
2017-07-27T09:11:59.954Z,28.4
2017-07-27T09:13:01.761Z,28.4
2017-07-27T09:14:03.239Z,28.4
2017-07-27T09:15:05.386Z,28.5
2017-07-27T09:16:07.155Z,28.4
2017-07-27T09:17:08.597Z,28.4
2017-07-27T09:18:10.047Z,28.5
2017-07-27T09:19:11.519Z,28.4
2017-07-27T09:20:13.298Z,28.4
2017-07-27T09:21:15.436Z,28.4
2017-07-27T09:22:17.574Z,28.4
2017-07-27T09:23:19.709Z,28.5
2017-07-27T09:24:21.844Z,28.5
2017-07-27T09:25:23.293Z,28.5
2017-07-27T09:26:24.741Z,28.4
2017-07-27T09:27:26.220Z,28.5
2017-07-27T09:28:26.993Z,28.5
2017-07-27T09:29:29.128Z,28.5
2017-07-27T09:30:30.599Z,28.5
2017-07-27T09:31:32.735Z,28.5
2017-07-27T09:32:34.185Z,28.5
2017-07-27T09:33:36.318Z,28.5
2017-07-27T09:34:38.125Z,28.5
2017-07-27T09:35:39.899Z,28.5
2017-07-27T09:36:41.705Z,28.5
2017-07-27T09:37:43.839Z,28.5
2017-07-27T09:38:45.970Z,28.5
2017-07-27T09:39:48.104Z,28.5
2017-07-27T09:40:49.884Z,28.5
2017-07-27T09:41:51.333Z,28.6
2017-07-27T09:42:53.462Z,28.5
2017-07-27T09:43:55.236Z,28.6
2017-07-27T09:44:57.371Z,28.5
2017-07-27T09:45:59.150Z,28.6
2017-07-27T09:47:00.952Z,28.5
2017-07-27T09:48:03.089Z,28.6
2017-07-27T09:49:04.537Z,28.6
2017-07-27T09:50:06.341Z,28.6
2017-07-27T09:51:07.785Z,28.6
2017-07-27T09:52:09.922Z,28.6
2017-07-27T09:53:12.056Z,28.6
2017-07-27T09:54:14.188Z,28.5
2017-07-27T09:55:16.327Z,28.7
2017-07-27T09:56:17.441Z,28.6
2017-07-27T09:57:18.892Z,28.6
2017-07-27T09:58:20.694Z,28.5
2017-07-27T09:59:22.832Z,28.6
2017-07-27T10:00:24.313Z,28.5
2017-07-27T10:01:26.446Z,28.5
2017-07-27T10:02:27.914Z,28.5
2017-07-27T10:03:29.365Z,28.5
2017-07-27T10:04:31.166Z,28.5
2017-07-27T10:05:33.017Z,28.5
2017-07-27T10:06:35.152Z,28.5
2017-07-27T10:07:36.269Z,28.5
2017-07-27T10:08:38.073Z,28.5
2017-07-27T10:09:39.874Z,28.5
2017-07-27T10:10:41.674Z,28.5
2017-07-27T10:11:43.455Z,28.6
2017-07-27T10:12:44.920Z,28.5
2017-07-27T10:13:46.393Z,28.6
2017-07-27T10:14:48.197Z,28.6
2017-07-27T10:15:49.999Z,28.6
2017-07-27T10:16:51.448Z,28.6
2017-07-27T10:17:52.893Z,28.7
2017-07-27T10:18:54.692Z,28.6
2017-07-27T10:19:56.837Z,28.6
2017-07-27T10:20:58.973Z,28.6
2017-07-27T10:22:00.770Z,28.6
2017-07-27T10:23:02.241Z,28.6
2017-07-27T10:24:04.042Z,28.6
2017-07-27T10:25:06.176Z,28.6
2017-07-27T10:26:07.343Z,28.6
2017-07-27T10:27:09.144Z,28.7
2017-07-27T10:28:11.281Z,28.6
2017-07-27T10:29:12.394Z,28.7
2017-07-27T10:30:13.507Z,28.7
2017-07-27T10:31:14.641Z,28.7
2017-07-27T10:32:16.440Z,28.7
2017-07-27T10:33:17.221Z,28.8
2017-07-27T10:34:19.361Z,28.8
2017-07-27T10:35:21.140Z,28.7
2017-07-27T10:36:22.938Z,28.8
2017-07-27T10:37:24.740Z,28.8
2017-07-27T10:38:26.534Z,28.8
2017-07-27T10:39:27.646Z,28.8
2017-07-27T10:40:29.115Z,28.7
2017-07-27T10:41:30.894Z,28.7
2017-07-27T10:42:32.702Z,28.7
2017-07-27T10:43:34.153Z,28.8
2017-07-27T10:44:35.932Z,28.7
2017-07-27T10:45:38.067Z,28.8
2017-07-27T10:46:40.198Z,28.7
2017-07-27T10:47:41.317Z,28.7
2017-07-27T10:48:43.446Z,28.7
2017-07-27T10:49:45.579Z,28.7
2017-07-27T10:50:47.377Z,28.8
2017-07-27T10:51:49.281Z,28.7
2017-07-27T10:52:51.085Z,28.6
2017-07-27T10:53:52.862Z,28.7
2017-07-27T10:54:54.997Z,28.7
2017-07-27T10:55:56.792Z,28.7
2017-07-27T10:56:58.931Z,28.7
2017-07-27T10:58:00.732Z,28.7
2017-07-27T10:59:02.862Z,28.8
2017-07-27T11:00:05.003Z,28.8
2017-07-27T11:01:06.450Z,28.8
2017-07-27T11:02:08.250Z,28.8
2017-07-27T11:03:10.384Z,28.8
2017-07-27T11:04:12.185Z,28.9
2017-07-27T11:05:13.637Z,28.8
2017-07-27T11:06:15.774Z,28.8
2017-07-27T11:07:17.907Z,28.8
2017-07-27T11:08:19.019Z,28.8
2017-07-27T11:09:20.818Z,28.8
2017-07-27T11:10:22.956Z,28.8
2017-07-27T11:11:25.090Z,28.8
2017-07-27T11:12:26.888Z,28.8
2017-07-27T11:13:28.364Z,28.9
2017-07-27T11:14:29.831Z,28.8
2017-07-27T11:15:31.964Z,28.8
2017-07-27T11:16:33.767Z,28.8
2017-07-27T11:17:35.212Z,28.9
2017-07-27T11:18:37.351Z,28.9
2017-07-27T11:19:39.483Z,28.9
2017-07-27T11:20:41.299Z,28.9
2017-07-27T11:21:43.087Z,28.7
2017-07-27T11:22:44.885Z,28.8
2017-07-27T11:23:47.022Z,28.8
2017-07-27T11:24:49.153Z,28.7
2017-07-27T11:25:50.932Z,28.7
2017-07-27T11:26:53.076Z,28.8
2017-07-27T11:27:55.266Z,28.8
2017-07-27T11:28:57.064Z,28.7
2017-07-27T11:29:58.537Z,28.8
2017-07-27T11:31:00.314Z,28.7
2017-07-27T11:32:02.114Z,28.8
2017-07-27T11:33:03.893Z,28.7
2017-07-27T11:34:06.024Z,28.7
2017-07-27T11:35:08.159Z,28.6
2017-07-27T11:36:09.964Z,28.6
2017-07-27T11:37:12.097Z,28.8
2017-07-27T11:38:13.544Z,28.8
2017-07-27T11:39:15.349Z,28.8
2017-07-27T11:40:17.153Z,28.7
2017-07-27T11:41:18.953Z,28.7
2017-07-27T11:42:21.083Z,28.7
2017-07-27T11:43:23.314Z,28.7
2017-07-27T11:44:25.450Z,28.8
2017-07-27T11:45:27.588Z,28.6
2017-07-27T11:46:29.724Z,28.7
2017-07-27T11:47:31.169Z,28.8
2017-07-27T11:48:33.303Z,28.7
2017-07-27T11:49:35.437Z,28.8
2017-07-27T11:50:37.217Z,28.8
2017-07-27T11:51:38.331Z,28.8
2017-07-27T11:52:40.466Z,28.8
2017-07-27T11:53:42.267Z,28.8
2017-07-27T11:54:44.402Z,28.7
2017-07-27T11:55:46.179Z,28.8
2017-07-27T11:56:48.313Z,28.8
2017-07-27T11:57:49.785Z,28.7
2017-07-27T11:58:51.632Z,28.7
2017-07-27T11:59:53.430Z,28.7
2017-07-27T12:00:55.237Z,28.6
2017-07-27T12:01:57.039Z,28.6
2017-07-27T12:02:59.167Z,28.7
2017-07-27T12:04:01.306Z,28.7
2017-07-27T12:05:03.117Z,28.6
2017-07-27T12:06:05.249Z,28.7
2017-07-27T12:07:06.690Z,28.7
2017-07-27T12:08:08.470Z,28.7
2017-07-27T12:09:10.274Z,28.8
2017-07-27T12:10:11.742Z,28.7
2017-07-27T12:11:13.522Z,28.7
2017-07-27T12:12:15.656Z,28.7
2017-07-27T12:13:17.455Z,28.8
2017-07-27T12:14:19.689Z,28.8
2017-07-27T12:15:21.850Z,28.8
2017-07-27T12:16:23.626Z,28.7
2017-07-27T12:17:25.408Z,28.7
2017-07-27T12:18:27.204Z,28.7
2017-07-27T12:19:29.005Z,28.8
2017-07-27T12:20:30.473Z,28.7
2017-07-27T12:21:32.253Z,28.8
2017-07-27T12:22:34.076Z,28.8
2017-07-27T12:23:36.205Z,28.8
2017-07-27T12:24:38.338Z,28.8
2017-07-27T12:25:40.153Z,28.8
2017-07-27T12:26:41.953Z,28.8
2017-07-27T12:27:43.752Z,28.8
2017-07-27T12:28:45.885Z,28.8
2017-07-27T12:29:48.021Z,28.9
2017-07-27T12:30:49.820Z,28.8
2017-07-27T12:31:51.271Z,28.9
2017-07-27T12:32:53.403Z,28.9
2017-07-27T12:33:55.536Z,28.8
2017-07-27T12:34:57.419Z,28.9
2017-07-27T12:35:59.221Z,28.9
2017-07-27T12:37:00.694Z,28.9
2017-07-27T12:38:02.497Z,28.8
2017-07-27T12:39:04.630Z,28.9
2017-07-27T12:40:06.430Z,28.9
2017-07-27T12:41:08.234Z,29
2017-07-27T12:42:10.028Z,28.9
2017-07-27T12:43:11.831Z,28.9
2017-07-27T12:44:13.279Z,28.9
2017-07-27T12:45:14.724Z,28.9
2017-07-27T12:46:16.878Z,28.9
2017-07-27T12:47:19.016Z,28.8
2017-07-27T12:48:20.794Z,28.8
2017-07-27T12:49:22.569Z,28.8
2017-07-27T12:50:24.374Z,28.9
2017-07-27T12:51:25.823Z,28.9
2017-07-27T12:52:27.954Z,28.9
2017-07-27T12:53:29.066Z,28.8
2017-07-27T12:54:30.868Z,28.8
2017-07-27T12:55:32.671Z,28.9
2017-07-27T12:56:34.140Z,28.9
2017-07-27T12:57:36.276Z,28.8
2017-07-27T12:58:38.074Z,28.9
2017-07-27T12:59:39.854Z,28.9
2017-07-27T13:00:41.629Z,28.9
2017-07-27T13:01:43.765Z,28.8
2017-07-27T13:02:45.898Z,28.8
2017-07-27T13:03:47.365Z,28.9
2017-07-27T13:04:49.143Z,28.9
2017-07-27T13:05:50.606Z,29
2017-07-27T13:06:52.406Z,28.9
2017-07-27T13:07:53.850Z,28.8
2017-07-27T13:08:55.652Z,28.9
2017-07-27T13:09:57.430Z,28.9
2017-07-27T13:10:59.313Z,28.9
2017-07-27T13:12:01.115Z,28.9
2017-07-27T13:13:03.251Z,28.9
2017-07-27T13:14:05.386Z,28.9
2017-07-27T13:15:07.169Z,28.9
2017-07-27T13:16:09.306Z,29
2017-07-27T13:17:10.760Z,29
2017-07-27T13:18:12.890Z,29
2017-07-27T13:19:14.670Z,29
2017-07-27T13:20:16.458Z,29
2017-07-27T13:21:18.257Z,29
2017-07-27T13:22:20.384Z,29
2017-07-27T13:23:22.515Z,29
2017-07-27T13:24:24.650Z,29.1
2017-07-27T13:25:26.453Z,29
2017-07-27T13:26:28.255Z,29
2017-07-27T13:27:29.729Z,29.1
2017-07-27T13:28:31.858Z,29
2017-07-27T13:29:33.657Z,29
2017-07-27T13:30:35.788Z,29
2017-07-27T13:31:37.925Z,29
2017-07-27T13:32:40.056Z,29
2017-07-27T13:33:42.191Z,29
2017-07-27T13:34:43.991Z,29.1
2017-07-27T13:35:45.801Z,29.1
2017-07-27T13:36:47.930Z,29
2017-07-27T13:37:50.063Z,29.1
2017-07-27T13:38:51.866Z,29.1
2017-07-27T13:39:53.661Z,29.1
2017-07-27T13:40:55.441Z,29
2017-07-27T13:41:57.294Z,29.1
2017-07-27T13:42:59.426Z,29
2017-07-27T13:44:01.208Z,29.1
2017-07-27T13:45:02.674Z,29.1